createdAt,value
2018-09-23T00:01:21.798Z,13.40
2018-09-23T00:03:51.108Z,13.30
2018-09-23T00:06:20.456Z,13.40
2018-09-23T00:08:49.747Z,13.40
2018-09-23T00:11:19.035Z,13.40
2018-09-23T00:13:48.341Z,13.30
2018-09-23T00:16:19.800Z,13.20
2018-09-23T00:18:49.077Z,13.40
2018-09-23T00:21:18.383Z,13.30
2018-09-23T00:23:48.066Z,13.30
2018-09-23T00:26:17.365Z,13.10
2018-09-23T00:28:46.875Z,13.10
2018-09-23T00:31:16.599Z,13.30
2018-09-23T00:33:45.898Z,13.30
2018-09-23T00:36:15.350Z,13.20
2018-09-23T00:38:44.670Z,13.30
2018-09-23T00:41:14.091Z,13.10
2018-09-23T00:43:43.355Z,13.20
2018-09-23T00:46:12.673Z,13.10
2018-09-23T00:48:41.996Z,13.10
2018-09-23T00:51:11.436Z,13.20
2018-09-23T00:53:40.711Z,13.20
2018-09-23T00:56:10.107Z,13.30
2018-09-23T00:58:39.512Z,13.50
2018-09-23T01:01:08.835Z,13.30
2018-09-23T01:03:38.236Z,13.40
2018-09-23T01:06:07.642Z,13.50
2018-09-23T01:08:37.055Z,13.50
2018-09-23T01:11:06.411Z,13.50
2018-09-23T01:13:35.667Z,13.50
2018-09-23T01:16:04.985Z,13.60
2018-09-23T01:18:34.248Z,13.40
2018-09-23T01:21:03.770Z,13.40
2018-09-23T01:23:33.191Z,13.50
2018-09-23T01:26:02.505Z,13.30
2018-09-23T01:28:31.877Z,13.50
2018-09-23T01:31:01.316Z,13.40
2018-09-23T01:33:30.954Z,13.40
2018-09-23T01:36:00.227Z,13.40
2018-09-23T01:38:29.783Z,13.40
2018-09-23T01:40:59.066Z,13.50
2018-09-23T01:43:28.297Z,13.40
2018-09-23T01:45:57.598Z,13.40
2018-09-23T01:48:26.865Z,13.40
2018-09-23T01:50:58.250Z,13.20
2018-09-23T01:53:27.648Z,13.30
2018-09-23T01:55:56.963Z,13.30
2018-09-23T01:58:26.311Z,13.30
2018-09-23T02:00:55.600Z,13.30
2018-09-23T02:03:25.117Z,13.30
2018-09-23T02:05:54.595Z,13.50
2018-09-23T02:08:24.051Z,13.60
2018-09-23T02:10:53.665Z,13.60
2018-09-23T02:13:22.948Z,13.60
2018-09-23T02:15:52.233Z,13.70
2018-09-23T02:18:21.633Z,13.70
2018-09-23T02:20:51.420Z,13.70
2018-09-23T02:23:20.896Z,13.70
2018-09-23T02:25:50.305Z,13.60
2018-09-23T02:28:19.712Z,13.50
2018-09-23T02:30:49.055Z,13.50
2018-09-23T02:33:18.283Z,13.60
2018-09-23T02:35:49.311Z,13.70
2018-09-23T02:38:18.817Z,13.50
2018-09-23T02:40:48.100Z,13.50
2018-09-23T02:43:17.381Z,13.50
2018-09-23T02:45:46.701Z,13.50
2018-09-23T02:48:16.096Z,13.70
2018-09-23T02:50:45.420Z,13.70
2018-09-23T02:53:14.774Z,13.70
2018-09-23T02:55:45.203Z,13.80
2018-09-23T02:58:14.687Z,13.70
2018-09-23T03:00:44.052Z,13.80
2018-09-23T03:03:13.496Z,13.70
2018-09-23T03:05:42.995Z,13.50
2018-09-23T03:08:12.315Z,13.60
2018-09-23T03:10:41.643Z,13.60
2018-09-23T03:13:10.959Z,13.30
2018-09-23T03:15:40.816Z,13.50
2018-09-23T03:18:10.248Z,13.40
2018-09-23T03:20:39.584Z,13.60
2018-09-23T03:23:08.835Z,13.70
2018-09-23T03:25:38.368Z,13.60
2018-09-23T03:28:07.667Z,13.70
2018-09-23T03:30:37.102Z,13.70
2018-09-23T03:33:06.579Z,13.70
2018-09-23T03:35:35.874Z,13.80
2018-09-23T03:38:05.287Z,13.80
2018-09-23T03:40:34.671Z,13.80
2018-09-23T03:43:04.032Z,13.70
2018-09-23T03:45:33.372Z,13.80
2018-09-23T03:48:02.677Z,13.70
2018-09-23T03:50:32.080Z,13.50
2018-09-23T03:53:01.456Z,13.50
2018-09-23T03:55:30.863Z,13.70
2018-09-23T03:58:00.133Z,13.70
2018-09-23T04:00:29.482Z,13.80
2018-09-23T04:02:58.824Z,13.70
2018-09-23T04:05:28.095Z,13.80
2018-09-23T04:07:57.571Z,13.80
2018-09-23T04:10:26.832Z,13.70
2018-09-23T04:12:56.087Z,13.60
2018-09-23T04:15:25.522Z,13.60
2018-09-23T04:17:54.828Z,13.60
2018-09-23T04:20:24.180Z,13.70
2018-09-23T04:22:53.431Z,13.70
2018-09-23T04:25:23.560Z,13.70
2018-09-23T04:27:52.899Z,13.50
2018-09-23T04:30:22.579Z,13.60
2018-09-23T04:32:52.127Z,13.60
2018-09-23T04:35:22.845Z,13.60
2018-09-23T04:37:52.200Z,13.70
2018-09-23T04:40:21.695Z,13.70
2018-09-23T04:42:51.089Z,13.60
2018-09-23T04:45:20.512Z,13.60
2018-09-23T04:47:49.827Z,13.60
2018-09-23T04:50:19.123Z,13.50
2018-09-23T04:52:48.443Z,13.50
2018-09-23T04:55:17.743Z,13.50
2018-09-23T04:57:47.009Z,13.40
2018-09-23T05:00:16.287Z,13.50
2018-09-23T05:02:45.589Z,13.50
2018-09-23T05:05:14.952Z,13.40
2018-09-23T05:07:44.239Z,13.30
2018-09-23T05:10:13.871Z,13.30
2018-09-23T05:12:43.563Z,13.40
2018-09-23T05:15:13.077Z,13.40
2018-09-23T05:17:42.697Z,13.40
2018-09-23T05:20:12.044Z,13.50
2018-09-23T05:22:41.348Z,13.60
2018-09-23T05:25:10.723Z,13.70
2018-09-23T05:27:40.124Z,13.70
2018-09-23T05:30:09.641Z,13.70
2018-09-23T05:32:39.319Z,13.60
2018-09-23T05:35:08.575Z,13.70
2018-09-23T05:37:39.095Z,13.80
2018-09-23T05:40:08.942Z,13.80
2018-09-23T05:42:38.255Z,13.80
2018-09-23T05:45:08.740Z,13.80
2018-09-23T05:47:38.585Z,13.80
2018-09-23T05:50:08.215Z,13.90
2018-09-23T05:52:37.886Z,13.80
2018-09-23T05:55:07.210Z,13.80
2018-09-23T05:57:36.504Z,13.70
2018-09-23T06:00:05.848Z,13.80
2018-09-23T06:02:35.137Z,13.90
2018-09-23T06:05:04.430Z,13.90
2018-09-23T06:07:33.775Z,13.80
2018-09-23T06:10:09.707Z,13.80
2018-09-23T06:12:39.007Z,13.80
2018-09-23T06:15:08.333Z,13.70
2018-09-23T06:17:37.774Z,13.70
2018-09-23T06:20:07.228Z,13.80
2018-09-23T06:22:36.527Z,13.90
2018-09-23T06:25:06.028Z,14.00
2018-09-23T06:27:35.548Z,14.00
2018-09-23T06:30:05.088Z,14.00
2018-09-23T06:32:34.386Z,13.90
2018-09-23T06:35:03.718Z,14.00
2018-09-23T06:37:33.108Z,13.90
2018-09-23T06:40:02.403Z,14.10
2018-09-23T06:42:33.032Z,14.10
2018-09-23T06:45:02.343Z,14.00
2018-09-23T06:47:31.631Z,14.00
2018-09-23T06:50:01.413Z,14.10
2018-09-23T06:52:30.812Z,14.20
2018-09-23T06:55:01.171Z,14.30
2018-09-23T06:57:30.459Z,14.20
2018-09-23T06:59:59.785Z,14.20
2018-09-23T07:02:29.195Z,14.20
2018-09-23T07:05:09.499Z,14.20
2018-09-23T07:07:38.843Z,14.20
2018-09-23T07:10:09.284Z,14.20
2018-09-23T07:12:38.582Z,14.30
2018-09-23T07:15:07.898Z,14.30
2018-09-23T07:17:37.275Z,14.30
2018-09-23T07:20:06.895Z,14.40
2018-09-23T07:22:36.191Z,14.30
2018-09-23T07:25:05.552Z,14.40
2018-09-23T07:27:34.856Z,14.40
2018-09-23T07:30:04.408Z,14.30
2018-09-23T07:32:33.704Z,14.40
2018-09-23T07:35:02.973Z,14.40
2018-09-23T07:37:32.207Z,14.30
2018-09-23T07:40:01.895Z,14.30
2018-09-23T07:42:31.094Z,14.30
2018-09-23T07:45:00.414Z,14.40
2018-09-23T07:47:29.797Z,14.50
2018-09-23T07:49:59.059Z,14.40
2018-09-23T07:52:28.347Z,14.40
2018-09-23T07:54:57.828Z,14.40
2018-09-23T07:57:27.104Z,14.20
2018-09-23T07:59:56.403Z,14.40
2018-09-23T08:02:25.675Z,14.50
2018-09-23T08:04:54.986Z,14.50
2018-09-23T08:07:24.201Z,14.60
2018-09-23T08:09:53.467Z,14.60
2018-09-23T08:12:22.836Z,14.60
2018-09-23T08:14:52.489Z,14.70
2018-09-23T08:17:21.413Z,14.70
2018-09-23T08:19:51.031Z,14.50
2018-09-23T08:22:20.171Z,14.50
2018-09-23T08:24:49.377Z,14.50
2018-09-23T08:27:18.644Z,14.50
2018-09-23T08:29:48.026Z,14.40
2018-09-23T08:32:17.346Z,14.50
2018-09-23T08:34:46.995Z,14.50
2018-09-23T08:37:16.259Z,14.60
2018-09-23T08:39:45.547Z,14.70
2018-09-23T08:42:15.452Z,14.70
2018-09-23T08:44:44.749Z,14.60
2018-09-23T08:47:14.028Z,14.70
2018-09-23T08:49:43.272Z,14.80
2018-09-23T08:52:12.680Z,14.80
2018-09-23T08:54:41.967Z,14.90
2018-09-23T08:57:11.500Z,14.90
2018-09-23T08:59:40.816Z,14.80
2018-09-23T09:02:10.129Z,14.90
2018-09-23T09:04:39.357Z,14.90
2018-09-23T09:07:08.623Z,14.80
2018-09-23T09:09:37.884Z,14.70
2018-09-23T09:12:07.303Z,14.70
2018-09-23T09:14:36.559Z,14.80
2018-09-23T09:17:05.868Z,14.80
2018-09-23T09:19:35.128Z,14.80
2018-09-23T09:22:04.439Z,15.00
2018-09-23T09:24:33.718Z,15.00
2018-09-23T09:27:03.037Z,15.10
2018-09-23T09:29:32.298Z,15.00
2018-09-23T09:32:01.555Z,15.00
2018-09-23T09:34:30.857Z,15.00
2018-09-23T09:37:00.171Z,14.90
2018-09-23T09:39:29.843Z,15.00
2018-09-23T09:41:59.174Z,14.90
2018-09-23T09:44:28.619Z,15.00
2018-09-23T09:46:58.137Z,15.00
2018-09-23T09:49:27.539Z,15.00
2018-09-23T09:51:56.847Z,15.00
2018-09-23T09:54:26.099Z,14.90
2018-09-23T09:56:55.378Z,14.80
2018-09-23T09:59:24.647Z,14.70
2018-09-23T10:01:53.896Z,14.70
2018-09-23T10:04:23.181Z,14.80
2018-09-23T10:06:52.424Z,14.80
2018-09-23T10:09:21.971Z,14.70
2018-09-23T10:11:51.215Z,14.60
2018-09-23T10:14:20.537Z,14.80
2018-09-23T10:16:50.708Z,14.70
2018-09-23T10:19:20.067Z,14.70
2018-09-23T10:21:49.339Z,14.50
2018-09-23T10:24:18.651Z,14.50
2018-09-23T10:26:47.954Z,14.60
2018-09-23T10:29:17.309Z,14.50
2018-09-23T10:31:46.647Z,14.30
2018-09-23T10:34:15.796Z,14.30
2018-09-23T10:36:45.078Z,14.30
2018-09-23T10:39:14.313Z,14.10
2018-09-23T10:41:43.581Z,14.00
2018-09-23T10:44:12.948Z,14.00
2018-09-23T10:46:42.256Z,14.00
2018-09-23T10:49:11.572Z,14.00
2018-09-23T10:51:41.103Z,14.00
2018-09-23T10:54:10.475Z,13.90
2018-09-23T10:56:39.747Z,13.80
2018-09-23T10:59:08.998Z,13.70
2018-09-23T11:01:38.291Z,13.80
2018-09-23T11:04:07.642Z,13.70
2018-09-23T11:06:36.880Z,13.70
2018-09-23T11:09:07.555Z,13.70
2018-09-23T11:11:37.054Z,13.90
2018-09-23T11:14:06.500Z,14.10
2018-09-23T11:16:35.771Z,14.20
2018-09-23T11:19:05.059Z,14.20
2018-09-23T11:21:34.364Z,14.20
2018-09-23T11:24:03.631Z,14.20
2018-09-23T11:26:32.930Z,14.20
2018-09-23T11:29:02.270Z,14.20
2018-09-23T11:31:31.784Z,14.20
2018-09-23T11:34:01.098Z,14.00
2018-09-23T11:36:30.417Z,13.80
2018-09-23T11:38:59.999Z,13.70
2018-09-23T11:41:29.491Z,13.80
2018-09-23T11:43:58.763Z,13.80
2018-09-23T11:46:28.029Z,13.90
2018-09-23T11:48:57.323Z,14.00
2018-09-23T11:51:26.583Z,14.10
2018-09-23T11:53:55.882Z,14.10
2018-09-23T11:56:25.293Z,13.90
2018-09-23T11:58:54.557Z,13.90
2018-09-23T12:01:23.839Z,14.00
2018-09-23T12:03:53.085Z,13.90
2018-09-23T12:06:22.344Z,13.80
2018-09-23T12:08:51.589Z,13.70
2018-09-23T12:11:20.861Z,13.80
2018-09-23T12:13:50.167Z,13.80
2018-09-23T12:16:19.498Z,13.70
2018-09-23T12:18:48.808Z,13.50
2018-09-23T12:21:18.100Z,13.50
2018-09-23T12:23:47.455Z,13.40
2018-09-23T12:26:16.717Z,13.50
2018-09-23T12:28:45.988Z,13.40
2018-09-23T12:31:15.276Z,13.30
2018-09-23T12:33:44.575Z,13.30
2018-09-23T12:36:13.814Z,13.30
2018-09-23T12:38:43.060Z,13.40
2018-09-23T12:41:12.333Z,13.30
2018-09-23T12:43:41.536Z,13.40
2018-09-23T12:46:10.819Z,13.20
2018-09-23T12:48:40.034Z,13.30
2018-09-23T12:51:09.639Z,13.20
2018-09-23T12:53:38.925Z,13.20
2018-09-23T12:56:08.264Z,13.00
2018-09-23T12:58:37.562Z,13.10
2018-09-23T13:01:06.874Z,13.00
2018-09-23T13:03:36.163Z,13.00
2018-09-23T13:06:05.428Z,12.90
2018-09-23T13:08:34.668Z,12.90
2018-09-23T13:11:03.984Z,13.00
2018-09-23T13:13:33.296Z,13.00
2018-09-23T13:16:02.617Z,13.10
2018-09-23T13:18:31.850Z,13.10
2018-09-23T13:21:01.426Z,13.00
2018-09-23T13:23:30.667Z,13.00
2018-09-23T13:26:00.043Z,13.00
2018-09-23T13:28:29.310Z,12.90
2018-09-23T13:30:58.566Z,12.80
2018-09-23T13:33:27.921Z,12.70
2018-09-23T13:35:57.306Z,12.70
2018-09-23T13:38:26.673Z,12.80
2018-09-23T13:40:55.902Z,12.90
2018-09-23T13:43:25.151Z,12.90
2018-09-23T13:45:54.422Z,12.90
2018-09-23T13:48:23.684Z,12.90
2018-09-23T13:50:53.071Z,12.90
2018-09-23T13:53:22.412Z,12.90
2018-09-23T13:55:52.743Z,12.90
2018-09-23T13:58:21.969Z,13.00
2018-09-23T14:00:51.259Z,13.00
2018-09-23T14:03:20.512Z,12.90
2018-09-23T14:05:50.175Z,12.70
2018-09-23T14:08:19.509Z,12.80
2018-09-23T14:10:48.823Z,12.80
2018-09-23T14:13:18.182Z,12.80
2018-09-23T14:15:47.466Z,12.70
2018-09-23T14:18:16.742Z,12.70
2018-09-23T14:20:46.007Z,12.60
2018-09-23T14:23:15.272Z,12.60
2018-09-23T14:25:44.692Z,12.60
2018-09-23T14:28:13.870Z,12.60
2018-09-23T14:30:43.134Z,12.60
2018-09-23T14:33:12.459Z,12.70
2018-09-23T14:35:43.996Z,12.70
2018-09-23T14:38:13.380Z,12.60
2018-09-23T14:40:42.615Z,12.70
2018-09-23T14:43:11.832Z,12.80
2018-09-23T14:45:41.127Z,12.50
2018-09-23T14:48:10.889Z,12.50
2018-09-23T14:50:40.160Z,12.30
2018-09-23T14:53:09.438Z,12.20
2018-09-23T14:55:38.753Z,12.00
2018-09-23T14:58:08.498Z,12.00
2018-09-23T15:00:37.773Z,12.20
2018-09-23T15:03:07.131Z,12.30
2018-09-23T15:05:36.424Z,12.10
2018-09-23T15:08:05.739Z,12.10
2018-09-23T15:10:35.027Z,12.20
2018-09-23T15:13:04.319Z,11.90
2018-09-23T15:15:33.635Z,12.00
2018-09-23T15:18:03.111Z,12.20
2018-09-23T15:20:32.568Z,12.10
2018-09-23T15:23:02.041Z,12.00
2018-09-23T15:25:31.668Z,12.10
2018-09-23T15:28:01.328Z,12.20
2018-09-23T15:30:30.807Z,12.20
2018-09-23T15:33:00.541Z,12.20
2018-09-23T15:35:29.963Z,11.90
2018-09-23T15:37:59.263Z,12.10
2018-09-23T15:40:28.516Z,11.90
2018-09-23T15:42:57.827Z,12.00
2018-09-23T15:45:27.160Z,11.90
2018-09-23T15:47:56.497Z,12.00
2018-09-23T15:50:25.757Z,11.90
2018-09-23T15:52:55.047Z,12.00
2018-09-23T15:55:24.379Z,12.10
2018-09-23T15:57:53.689Z,12.10
2018-09-23T16:00:23.071Z,12.00
2018-09-23T16:02:52.351Z,12.10
2018-09-23T16:05:21.555Z,12.10
2018-09-23T16:07:50.743Z,11.90
2018-09-23T16:10:20.011Z,11.90
2018-09-23T16:12:49.276Z,12.10
2018-09-23T16:15:18.600Z,11.90
2018-09-23T16:17:47.876Z,11.70
2018-09-23T16:20:17.143Z,12.00
2018-09-23T16:22:46.489Z,12.00
2018-09-23T16:25:15.734Z,12.20
2018-09-23T16:27:45.098Z,12.10
2018-09-23T16:30:14.367Z,12.10
2018-09-23T16:32:43.851Z,12.10
2018-09-23T16:35:13.139Z,12.10
2018-09-23T16:37:42.471Z,12.00
2018-09-23T16:40:11.775Z,12.00
2018-09-23T16:42:41.206Z,12.00
2018-09-23T16:45:10.575Z,12.10
2018-09-23T16:47:40.241Z,12.00
2018-09-23T16:50:09.425Z,11.90
2018-09-23T16:52:38.707Z,11.90
2018-09-23T16:55:08.194Z,11.90
2018-09-23T16:57:37.662Z,11.80
2018-09-23T17:00:06.984Z,12.00
2018-09-23T17:02:36.235Z,11.90
2018-09-23T17:05:05.523Z,12.10
2018-09-23T17:07:34.788Z,11.90
2018-09-23T17:10:04.069Z,11.80
2018-09-23T17:12:33.374Z,11.70
2018-09-23T17:15:03.113Z,11.90
2018-09-23T17:17:32.628Z,11.70
2018-09-23T17:20:01.970Z,11.80
2018-09-23T17:22:31.228Z,11.90
2018-09-23T17:25:00.512Z,12.10
2018-09-23T17:27:29.904Z,11.90
2018-09-23T17:30:01.771Z,12.00
2018-09-23T17:32:30.943Z,11.90
2018-09-23T17:35:00.286Z,12.00
2018-09-23T17:37:29.498Z,11.80
2018-09-23T17:39:58.807Z,11.80
2018-09-23T17:42:29.244Z,11.70
2018-09-23T17:44:58.592Z,11.60
2018-09-23T17:47:27.883Z,11.60
2018-09-23T17:49:57.145Z,11.90
2018-09-23T17:52:26.663Z,12.00
2018-09-23T17:54:56.167Z,12.00
2018-09-23T17:57:25.434Z,11.90
2018-09-23T17:59:54.767Z,12.00
2018-09-23T18:02:24.092Z,12.00
2018-09-23T18:04:53.323Z,12.20
2018-09-23T18:07:22.646Z,12.10
2018-09-23T18:09:52.656Z,11.70
2018-09-23T18:12:22.911Z,11.90
2018-09-23T18:14:52.195Z,12.00
2018-09-23T18:17:21.503Z,12.00
2018-09-23T18:19:50.776Z,12.00
2018-09-23T18:22:20.336Z,12.00
2018-09-23T18:24:49.607Z,11.80
2018-09-23T18:27:18.929Z,12.00
2018-09-23T18:29:48.733Z,11.90
2018-09-23T18:32:18.032Z,11.90
2018-09-23T18:34:48.388Z,11.80
2018-09-23T18:37:18.198Z,11.70
2018-09-23T18:39:47.463Z,12.00
2018-09-23T18:42:16.699Z,12.10
2018-09-23T18:44:46.115Z,12.00
2018-09-23T18:47:15.692Z,12.00
2018-09-23T18:49:45.039Z,12.10
2018-09-23T18:52:16.572Z,12.20
2018-09-23T18:54:51.428Z,12.30
2018-09-23T18:57:20.705Z,12.30
2018-09-23T18:59:49.973Z,12.20
2018-09-23T19:02:19.191Z,12.30
2018-09-23T19:04:52.730Z,12.30
2018-09-23T19:07:22.030Z,12.20
2018-09-23T19:09:51.313Z,12.30
2018-09-23T19:12:20.668Z,12.40
2018-09-23T19:14:49.974Z,12.30
2018-09-23T19:17:19.490Z,12.30
2018-09-23T19:19:54.171Z,12.20
2018-09-23T19:22:28.631Z,12.30
2018-09-23T19:24:58.023Z,12.10
2018-09-23T19:27:27.363Z,12.10
2018-09-23T19:29:56.665Z,12.00
2018-09-23T19:32:25.974Z,12.00
2018-09-23T19:34:55.272Z,12.10
2018-09-23T19:37:24.573Z,12.00
2018-09-23T19:39:54.121Z,11.80
2018-09-23T19:42:23.399Z,11.90
2018-09-23T19:44:52.679Z,11.70
2018-09-23T19:47:22.031Z,11.80
2018-09-23T19:49:51.379Z,11.70
2018-09-23T19:52:20.689Z,11.70
2018-09-23T19:54:49.939Z,11.90
2018-09-23T19:57:19.211Z,11.80
2018-09-23T19:59:48.491Z,11.80
2018-09-23T20:02:17.882Z,11.90
2018-09-23T20:04:47.416Z,11.70
2018-09-23T20:07:16.757Z,11.80
2018-09-23T20:09:46.490Z,11.70
2018-09-23T20:12:15.900Z,11.70
2018-09-23T20:14:45.215Z,11.90
2018-09-23T20:17:14.843Z,11.60
2018-09-23T20:19:44.614Z,11.80
2018-09-23T20:22:13.899Z,11.80
2018-09-23T20:24:43.119Z,11.80
2018-09-23T20:27:12.485Z,11.80
2018-09-23T20:29:41.784Z,11.70
2018-09-23T20:32:11.042Z,11.70
2018-09-23T20:34:40.453Z,11.70
2018-09-23T20:37:09.708Z,11.80
2018-09-23T20:39:39.068Z,11.80
2018-09-23T20:42:08.513Z,11.80
2018-09-23T20:44:37.906Z,11.70
2018-09-23T20:47:07.264Z,11.70
2018-09-23T20:49:36.503Z,11.80
2018-09-23T20:52:06.218Z,11.60
2018-09-23T20:54:35.656Z,11.70
2018-09-23T20:57:05.289Z,11.70
2018-09-23T20:59:34.764Z,11.70
2018-09-23T21:02:04.074Z,11.60
2018-09-23T21:04:33.803Z,11.60
2018-09-23T21:07:03.047Z,11.60
2018-09-23T21:09:32.299Z,11.70
2018-09-23T21:12:01.565Z,11.90
2018-09-23T21:14:31.002Z,11.70
2018-09-23T21:17:00.704Z,11.80
2018-09-23T21:19:30.019Z,11.90
2018-09-23T21:21:59.282Z,11.90
2018-09-23T21:24:28.568Z,11.80
2018-09-23T21:26:58.011Z,11.80
2018-09-23T21:29:27.515Z,11.80
2018-09-23T21:31:56.870Z,11.80
2018-09-23T21:34:26.165Z,11.70
2018-09-23T21:36:55.431Z,11.80
2018-09-23T21:39:24.814Z,11.60
2018-09-23T21:41:54.291Z,11.70
2018-09-23T21:44:23.589Z,11.70
2018-09-23T21:46:52.981Z,11.70
2018-09-23T21:49:22.326Z,11.70
2018-09-23T21:51:51.596Z,11.70
2018-09-23T21:54:20.887Z,11.60
2018-09-23T21:56:50.162Z,11.60
2018-09-23T21:59:19.426Z,11.30
2018-09-23T22:01:48.691Z,11.50
2018-09-23T22:04:17.910Z,11.40
2018-09-23T22:06:47.575Z,11.50
2018-09-23T22:09:16.843Z,11.30
2018-09-23T22:11:46.187Z,11.40
2018-09-23T22:14:15.485Z,11.30
2018-09-23T22:16:44.794Z,11.30
2018-09-23T22:19:14.122Z,11.20
2018-09-23T22:21:43.380Z,11.20
2018-09-23T22:24:12.587Z,11.00
2018-09-23T22:26:41.791Z,11.10
2018-09-23T22:29:11.042Z,11.20
2018-09-23T22:31:40.282Z,11.00
2018-09-23T22:34:09.628Z,11.10
2018-09-23T22:36:38.877Z,11.10
2018-09-23T22:39:08.325Z,11.10
2018-09-23T22:41:37.624Z,11.10
2018-09-23T22:44:06.917Z,11.00
2018-09-23T22:46:36.232Z,11.20
2018-09-23T22:49:05.485Z,11.10
2018-09-23T22:51:34.942Z,11.00
2018-09-23T22:54:10.087Z,11.10
2018-09-23T22:56:39.409Z,11.10
2018-09-23T22:59:08.631Z,11.20
2018-09-23T23:01:37.955Z,11.00
2018-09-23T23:04:07.367Z,11.00
2018-09-23T23:06:36.969Z,10.90
2018-09-23T23:09:09.065Z,10.80
2018-09-23T23:11:38.319Z,10.80
2018-09-23T23:14:07.774Z,10.90
2018-09-23T23:16:37.070Z,11.00
2018-09-23T23:19:06.420Z,10.80
2018-09-23T23:21:35.655Z,10.90
2018-09-23T23:24:04.986Z,10.90
2018-09-23T23:26:34.279Z,10.90
2018-09-23T23:29:03.576Z,10.60
2018-09-23T23:31:32.873Z,10.80
2018-09-23T23:34:02.064Z,10.80
2018-09-23T23:36:31.546Z,10.70
2018-09-23T23:39:00.860Z,10.80
2018-09-23T23:41:30.174Z,10.60
2018-09-23T23:43:59.459Z,10.70
2018-09-23T23:46:30.884Z,10.70
2018-09-23T23:49:00.234Z,10.40
2018-09-23T23:51:29.588Z,10.50
2018-09-23T23:53:58.869Z,10.60
2018-09-23T23:56:28.220Z,10.50
2018-09-23T23:58:57.494Z,10.50
